Liberty Promise — WWMZ — position and weather

sailwx.info

Track history (hours):
 
Tides and Currents Weather Stations Pressure Air Temp Water Temp Dewpoint Dewpoint Depression Visibility Wind Speed Wind Dir Waves Ship Positions

Liberty Promise

Owner: LIBERTY PROMISE CORPORATION, LAKE SUCCESS, NY. More information available from US FCC via Universal Licensing System and Coast Guard Vessel Documentation Center.

Last reported at 2014-Oct-20 10:32 UTC. Time now 2014-Oct-20 11:30 UTC.
Position N 39°54' W 075°08'.

Length 200 m; draft 9.1 m.

Type: Cargo ship. MMSI: 366102000.

Date/timePositionNaut miles runAvg speedWind from/ knotsBaromVisibWave heightAir tempDewpointWater temp
2014-Oct-20 10:32N 39°54' W 075°08'0 0.0
2014-Oct-20 04:17N 39°54' W 075°08'0 0.0
2014-Oct-20 03:32N 39°54' W 075°08'9 2.7
2014-Oct-20 00:07N 39°51' W 075°19'712.2
2014-Oct-19 23:33N 39°47' W 075°27'1313.1
2014-Oct-19 22:33N 39°36' W 075°34'1414.0
2014-Oct-19 21:33N 39°22' W 075°28'  
2014-Oct-11 14:33N 27°03' W 079°53'1717.1
2014-Oct-11 13:34N 26°45' W 079°53'1817.7
2014-Oct-11 12:34N 26°28' W 079°54'1616.5
2014-Oct-11 11:34N 26°11' W 079°55'1716.8
2014-Oct-11 10:33N 25°55' W 079°55'1818.2
2014-Oct-11 09:33N 25°36' W 079°57'  
Track history (hours):
 
Tides and Currents Weather Stations Pressure Air Temp Water Temp Dewpoint Dewpoint Depression Visibility Wind Speed Wind Dir Waves Ship Positions

Liberty Promise

Owner: LIBERTY PROMISE CORPORATION, LAKE SUCCESS, NY. More information available from US FCC via Universal Licensing System and Coast Guard Vessel Documentation Center.

Last reported at 2014-Oct-20 10:32 UTC. Time now 2014-Oct-20 11:30 UTC.
Position N 39°54' W 075°08'.

Length 200 m; draft 9.1 m.

Type: Cargo ship. MMSI: 366102000.

Date/timePositionNaut miles runAvg speedWind from/ knotsBaromVisibWave heightAir tempDewpointWater temp
2014-Oct-20 10:32N 39°54' W 075°08'0 0.0
2014-Oct-20 04:17N 39°54' W 075°08'0 0.0
2014-Oct-20 03:32N 39°54' W 075°08'9 2.7
2014-Oct-20 00:07N 39°51' W 075°19'712.2
2014-Oct-19 23:33N 39°47' W 075°27'1313.1
2014-Oct-19 22:33N 39°36' W 075°34'1414.0
2014-Oct-19 21:33N 39°22' W 075°28'  
2014-Oct-11 14:33N 27°03' W 079°53'1717.1
2014-Oct-11 13:34N 26°45' W 079°53'1817.7
2014-Oct-11 12:34N 26°28' W 079°54'1616.5
2014-Oct-11 11:34N 26°11' W 079°55'1716.8
2014-Oct-11 10:33N 25°55' W 079°55'1818.2
2014-Oct-11 09:33N 25°36' W 079°57'  

Dump ship's entire track history